createdAt,value
2022-11-12T00:01:12.227Z,7.64
2022-11-12T00:03:38.648Z,7.79
2022-11-12T00:06:09.934Z,7.74
2022-11-12T00:08:36.730Z,7.71
2022-11-12T00:11:04.965Z,7.85
2022-11-12T00:13:34.262Z,7.97
2022-11-12T00:16:02.998Z,7.95
2022-11-12T00:18:31.760Z,7.92
2022-11-12T00:21:00.535Z,8.00
2022-11-12T00:23:27.021Z,8.16
2022-11-12T00:26:01.240Z,8.22
2022-11-12T00:28:34.761Z,8.08
2022-11-12T00:31:08.872Z,8.13
2022-11-12T00:33:38.808Z,8.19
2022-11-12T00:36:05.562Z,8.29
2022-11-12T00:38:32.166Z,8.33
2022-11-12T00:41:02.015Z,8.37
2022-11-12T00:43:31.275Z,8.36
2022-11-12T00:45:57.775Z,8.36
2022-11-12T00:48:24.744Z,8.39
2022-11-12T00:50:53.676Z,8.40
2022-11-12T00:53:20.247Z,8.45
2022-11-12T00:55:49.303Z,8.38
2022-11-12T00:58:15.798Z,8.42
2022-11-12T01:00:42.332Z,8.56
2022-11-12T01:03:09.001Z,8.48
2022-11-12T01:05:37.838Z,8.56
2022-11-12T01:08:04.387Z,8.32
2022-11-12T01:10:35.016Z,8.20
2022-11-12T01:13:01.512Z,8.37
2022-11-12T01:15:30.355Z,8.40
2022-11-12T01:17:56.826Z,8.51
2022-11-12T01:20:25.669Z,8.17
2022-11-12T01:22:59.507Z,8.28
2022-11-12T01:25:26.030Z,8.42
2022-11-12T01:27:54.801Z,8.36
2022-11-12T01:30:23.881Z,8.37
2022-11-12T01:32:50.378Z,8.29
2022-11-12T01:35:21.486Z,7.86
2022-11-12T01:37:47.995Z,8.00
2022-11-12T01:40:15.132Z,8.06
2022-11-12T01:42:41.614Z,8.28
2022-11-12T01:45:16.014Z,8.43
2022-11-12T01:47:44.565Z,8.51
2022-11-12T01:50:35.311Z,8.34
2022-11-12T01:53:08.481Z,8.39
2022-11-12T01:55:37.423Z,8.25
2022-11-12T01:58:15.836Z,8.29
2022-11-12T02:00:42.916Z,8.24
2022-11-12T02:03:18.460Z,8.05
2022-11-12T02:05:47.965Z,8.09
2022-11-12T02:08:15.243Z,8.06
2022-11-12T02:10:41.765Z,8.18
2022-11-12T02:13:27.399Z,8.24
2022-11-12T02:15:56.392Z,8.24
2022-11-12T02:18:23.010Z,8.20
2022-11-12T02:21:09.281Z,8.06
2022-11-12T02:23:40.555Z,8.02
2022-11-12T02:26:07.072Z,7.90
2022-11-12T02:28:35.820Z,7.83
2022-11-12T02:31:02.289Z,7.85
2022-11-12T02:33:28.790Z,7.95
2022-11-12T02:35:55.315Z,8.02
2022-11-12T02:38:24.417Z,8.04
2022-11-12T02:40:51.882Z,7.97
2022-11-12T02:43:18.370Z,8.03
2022-11-12T02:45:44.915Z,8.12
2022-11-12T02:48:18.927Z,8.17
2022-11-12T02:50:50.502Z,8.00
2022-11-12T02:53:17.039Z,7.73
2022-11-12T02:55:44.001Z,7.70
2022-11-12T02:58:12.910Z,7.87
2022-11-12T03:00:41.809Z,7.87
2022-11-12T03:03:08.564Z,7.84
2022-11-12T03:05:36.117Z,7.94
2022-11-12T03:08:08.021Z,7.67
2022-11-12T03:10:38.888Z,7.70
2022-11-12T03:13:10.443Z,7.74
2022-11-12T03:15:39.102Z,7.76
2022-11-12T03:18:07.960Z,7.75
2022-11-12T03:20:34.835Z,7.81
2022-11-12T03:23:03.978Z,7.73
2022-11-12T03:25:30.446Z,7.75
2022-11-12T03:28:08.279Z,7.64
2022-11-12T03:30:38.287Z,7.67
2022-11-12T03:33:06.308Z,7.71
2022-11-12T03:35:33.897Z,7.55
2022-11-12T03:38:05.746Z,7.60
2022-11-12T03:40:33.402Z,7.21
2022-11-12T03:43:02.481Z,7.22
2022-11-12T03:45:28.995Z,7.39
2022-11-12T03:47:58.029Z,7.44
2022-11-12T03:50:27.495Z,7.13
2022-11-12T03:52:56.479Z,7.05
2022-11-12T03:55:25.341Z,7.35
2022-11-12T03:57:53.685Z,7.47
2022-11-12T04:00:24.495Z,7.59
2022-11-12T04:02:54.252Z,7.73
2022-11-12T04:05:40.034Z,7.80
2022-11-12T04:08:30.927Z,7.82
2022-11-12T04:10:59.748Z,7.68
2022-11-12T04:13:29.475Z,7.70
2022-11-12T04:16:28.740Z,7.62
2022-11-12T04:19:19.004Z,7.66
2022-11-12T04:21:55.899Z,7.58
2022-11-12T04:24:48.000Z,7.66
2022-11-12T04:27:30.776Z,7.70
2022-11-12T04:30:16.360Z,7.71
2022-11-12T04:32:58.423Z,7.33
2022-11-12T04:35:26.626Z,7.38
2022-11-12T04:37:53.464Z,7.56
2022-11-12T04:40:41.665Z,7.46
2022-11-12T04:43:34.561Z,7.47
2022-11-12T04:46:03.425Z,7.44
2022-11-12T04:48:30.791Z,7.37
2022-11-12T04:51:22.450Z,7.25
2022-11-12T04:53:51.417Z,7.40
2022-11-12T04:56:22.776Z,7.32
2022-11-12T04:58:49.281Z,7.30
2022-11-12T05:01:15.800Z,7.20
2022-11-12T05:03:45.351Z,7.25
2022-11-12T05:06:30.410Z,7.25
2022-11-12T05:08:56.897Z,7.27
2022-11-12T05:11:23.781Z,7.11
2022-11-12T05:13:55.102Z,6.92
2022-11-12T05:16:24.112Z,6.70
2022-11-12T05:18:52.841Z,6.86
2022-11-12T05:21:43.222Z,6.92
2022-11-12T05:24:22.439Z,7.03
2022-11-12T05:26:59.650Z,6.97
2022-11-12T05:29:28.824Z,7.02
2022-11-12T05:31:57.696Z,7.11
2022-11-12T05:34:26.691Z,7.00
2022-11-12T05:36:55.958Z,7.11
2022-11-12T05:39:25.222Z,7.23
2022-11-12T05:42:11.813Z,7.31
2022-11-12T05:44:38.897Z,7.32
2022-11-12T05:47:05.363Z,7.29
2022-11-12T05:49:31.850Z,7.23
2022-11-12T05:52:00.419Z,7.26
2022-11-12T05:54:29.476Z,7.29
2022-11-12T05:56:55.980Z,7.38
2022-11-12T05:59:25.538Z,7.33
2022-11-12T06:01:52.222Z,7.44
2022-11-12T06:04:22.233Z,7.51
2022-11-12T06:06:51.049Z,7.50
2022-11-12T06:09:20.016Z,7.48
2022-11-12T06:11:48.748Z,7.44
2022-11-12T06:14:15.231Z,7.45
2022-11-12T06:16:41.762Z,7.40
2022-11-12T06:19:11.507Z,7.35
2022-11-12T06:21:40.697Z,7.39
2022-11-12T06:24:10.201Z,7.31
2022-11-12T06:26:39.170Z,7.42
2022-11-12T06:29:08.273Z,7.20
2022-11-12T06:31:40.009Z,7.03
2022-11-12T06:34:11.772Z,6.96
2022-11-12T06:36:40.889Z,7.01
2022-11-12T06:39:10.247Z,7.00
2022-11-12T06:41:41.574Z,7.02
2022-11-12T06:44:10.344Z,6.90
2022-11-12T06:46:36.803Z,6.91
2022-11-12T06:49:06.175Z,7.07
2022-11-12T06:51:32.840Z,7.12
2022-11-12T06:53:59.458Z,7.15
2022-11-12T06:56:25.997Z,7.25
2022-11-12T06:58:52.491Z,7.34
2022-11-12T07:01:19.103Z,7.46
2022-11-12T07:03:45.790Z,7.46
2022-11-12T07:06:15.246Z,7.56
2022-11-12T07:08:44.572Z,7.48
2022-11-12T07:11:11.406Z,7.62
2022-11-12T07:13:40.294Z,8.05
2022-11-12T07:16:08.097Z,8.23
2022-11-12T07:18:37.979Z,8.28
2022-11-12T07:21:10.999Z,7.96
2022-11-12T07:23:43.269Z,7.62
2022-11-12T07:26:17.904Z,7.73
2022-11-12T07:28:45.848Z,7.78
2022-11-12T07:31:14.236Z,7.54
2022-11-12T07:33:40.861Z,7.68
2022-11-12T07:36:11.853Z,7.91
2022-11-12T07:38:42.356Z,8.08
2022-11-12T07:41:27.077Z,8.13
2022-11-12T07:43:53.959Z,8.25
2022-11-12T07:46:26.925Z,7.97
2022-11-12T07:48:54.679Z,8.16
2022-11-12T07:51:24.326Z,8.16
2022-11-12T07:53:59.549Z,8.36
2022-11-12T07:56:26.894Z,8.52
2022-11-12T07:58:53.417Z,8.57
2022-11-12T08:01:31.785Z,8.42
2022-11-12T08:04:06.269Z,8.42
2022-11-12T08:06:32.952Z,8.53
2022-11-12T08:09:04.577Z,8.60
2022-11-12T08:11:34.147Z,8.87
2022-11-12T08:14:01.008Z,8.90
2022-11-12T08:16:32.034Z,8.96
2022-11-12T08:19:01.674Z,8.91
2022-11-12T08:21:28.349Z,9.03
2022-11-12T08:23:57.377Z,9.00
2022-11-12T08:26:28.699Z,9.01
2022-11-12T08:29:03.957Z,8.89
2022-11-12T08:31:38.459Z,8.72
2022-11-12T08:34:12.470Z,8.86
2022-11-12T08:36:41.853Z,8.81
2022-11-12T08:39:10.747Z,8.77
2022-11-12T08:41:37.230Z,8.96
2022-11-12T08:44:08.285Z,8.94
2022-11-12T08:46:35.265Z,9.11
2022-11-12T08:49:01.852Z,9.15
2022-11-12T08:51:28.357Z,9.18
2022-11-12T08:53:55.376Z,9.13
2022-11-12T08:56:21.927Z,9.14
2022-11-12T08:58:50.894Z,8.97
2022-11-12T09:01:17.522Z,9.16
2022-11-12T09:03:46.627Z,9.16
2022-11-12T09:06:13.063Z,9.28
2022-11-12T09:08:39.933Z,9.15
2022-11-12T09:11:08.949Z,9.24
2022-11-12T09:13:35.648Z,9.05
2022-11-12T09:16:07.002Z,9.24
2022-11-12T09:18:34.286Z,9.24
2022-11-12T09:21:05.400Z,9.25
2022-11-12T09:23:34.602Z,9.43
2022-11-12T09:26:04.440Z,9.32
2022-11-12T09:28:35.844Z,9.32
2022-11-12T09:31:09.405Z,9.47
2022-11-12T09:33:35.927Z,9.48
2022-11-12T09:36:04.006Z,9.62
2022-11-12T09:38:33.303Z,9.66
2022-11-12T09:41:15.096Z,9.70
2022-11-12T09:43:52.611Z,9.65
2022-11-12T09:46:28.552Z,9.81
2022-11-12T09:49:23.541Z,9.75
2022-11-12T09:51:55.509Z,10.35
2022-11-12T09:54:27.521Z,10.50
2022-11-12T09:56:54.848Z,10.30
2022-11-12T09:59:26.086Z,10.38
2022-11-12T10:02:11.568Z,10.42
2022-11-12T10:04:53.758Z,10.61
2022-11-12T10:07:34.196Z,10.68
2022-11-12T10:10:29.413Z,10.88
2022-11-12T10:13:38.670Z,10.57
2022-11-12T10:16:28.758Z,10.81
2022-11-12T10:19:24.328Z,11.01
2022-11-12T10:22:04.681Z,11.05
2022-11-12T10:24:36.768Z,11.25
2022-11-12T10:27:16.891Z,11.31
2022-11-12T10:29:59.379Z,11.54
2022-11-12T10:32:28.371Z,11.51
2022-11-12T10:34:54.778Z,11.62
2022-11-12T10:37:33.913Z,11.72
2022-11-12T10:40:20.374Z,11.66
2022-11-12T10:43:02.966Z,11.88
2022-11-12T10:45:30.374Z,12.04
2022-11-12T10:47:59.636Z,12.21
2022-11-12T10:50:29.596Z,12.32
2022-11-12T10:53:00.697Z,12.17
2022-11-12T10:55:31.763Z,12.35
2022-11-12T10:58:05.036Z,12.36
2022-11-12T11:00:31.627Z,12.42
2022-11-12T11:03:03.042Z,12.16
2022-11-12T11:05:32.439Z,12.06
2022-11-12T11:07:59.200Z,12.28
2022-11-12T11:10:34.440Z,12.26
2022-11-12T11:13:33.040Z,12.63
2022-11-12T11:16:03.769Z,12.76
2022-11-12T11:18:34.061Z,12.35
2022-11-12T11:21:07.574Z,12.24
2022-11-12T11:23:48.884Z,12.66
2022-11-12T11:26:46.454Z,12.90
2022-11-12T11:29:49.907Z,13.10
2022-11-12T11:32:44.132Z,13.20
2022-11-12T11:35:48.240Z,13.30
2022-11-12T11:38:30.612Z,13.33
2022-11-12T11:40:59.757Z,13.45
2022-11-12T11:43:46.934Z,13.22
2022-11-12T11:46:48.248Z,13.41
2022-11-12T11:49:39.382Z,13.54
2022-11-12T11:52:24.533Z,13.48
2022-11-12T11:55:04.272Z,13.14
2022-11-12T11:57:55.505Z,13.34
2022-11-12T12:00:25.533Z,13.54
2022-11-12T12:03:16.834Z,13.73
2022-11-12T12:06:06.700Z,13.80
2022-11-12T12:08:45.301Z,13.70
2022-11-12T12:11:15.982Z,13.97
2022-11-12T12:14:10.804Z,14.40
2022-11-12T12:17:04.641Z,14.28
2022-11-12T12:19:54.417Z,14.07
2022-11-12T12:22:39.969Z,14.23
2022-11-12T12:25:26.146Z,13.74
2022-11-12T12:28:14.361Z,13.83
2022-11-12T12:30:48.055Z,13.89
2022-11-12T12:33:36.385Z,13.91
2022-11-12T12:36:08.702Z,13.88
2022-11-12T12:38:44.116Z,14.04
2022-11-12T12:41:27.871Z,13.67
2022-11-12T12:44:03.108Z,13.87
2022-11-12T12:46:31.238Z,13.92
2022-11-12T12:49:03.079Z,13.47
2022-11-12T12:51:40.718Z,13.43
2022-11-12T12:54:49.901Z,13.38
2022-11-12T12:57:36.709Z,13.36
2022-11-12T13:00:37.819Z,13.45
2022-11-12T13:03:06.793Z,13.65
2022-11-12T13:05:34.444Z,13.74
2022-11-12T13:08:11.858Z,13.74
2022-11-12T13:10:47.341Z,13.49
2022-11-12T13:13:31.714Z,13.77
2022-11-12T13:16:00.405Z,13.67
2022-11-12T13:18:39.023Z,13.75
2022-11-12T13:21:13.213Z,13.74
2022-11-12T13:24:02.798Z,13.82
2022-11-12T13:26:46.872Z,13.73
2022-11-12T13:29:40.255Z,13.60
2022-11-12T13:32:31.103Z,13.52
2022-11-12T13:35:20.533Z,13.45
2022-11-12T13:38:09.019Z,13.63
2022-11-12T13:40:50.721Z,13.79
2022-11-12T13:43:23.373Z,13.64
2022-11-12T13:45:52.853Z,13.48
2022-11-12T13:48:42.017Z,13.58
2022-11-12T13:51:28.889Z,13.76
2022-11-12T13:53:57.738Z,13.79
2022-11-12T13:56:28.521Z,13.79
2022-11-12T13:58:55.360Z,13.88
2022-11-12T14:01:24.171Z,13.86
2022-11-12T14:03:54.169Z,13.84
2022-11-12T14:06:32.244Z,13.91
2022-11-12T14:09:22.554Z,13.85
2022-11-12T14:12:00.915Z,13.89
2022-11-12T14:15:01.918Z,13.81
2022-11-12T14:17:43.639Z,13.82
2022-11-12T14:20:19.204Z,13.79
2022-11-12T14:22:46.588Z,13.53
2022-11-12T14:25:29.387Z,13.47
2022-11-12T14:27:56.536Z,13.47
2022-11-12T14:30:34.369Z,13.42
2022-11-12T14:33:12.199Z,13.35
2022-11-12T14:35:40.226Z,13.48
2022-11-12T14:38:09.529Z,13.49
2022-11-12T14:40:47.734Z,13.24
2022-11-12T14:43:27.875Z,13.32
2022-11-12T14:45:56.815Z,13.32
2022-11-12T14:48:26.612Z,13.45
2022-11-12T14:51:00.801Z,13.42
2022-11-12T14:53:33.008Z,13.38
2022-11-12T14:56:03.219Z,13.27
2022-11-12T14:58:30.861Z,13.32
2022-11-12T15:00:57.446Z,13.38
2022-11-12T15:03:30.714Z,13.34
2022-11-12T15:06:10.218Z,13.17
2022-11-12T15:08:41.576Z,13.13
2022-11-12T15:11:22.364Z,13.07
2022-11-12T15:13:54.279Z,12.96
2022-11-12T15:16:24.617Z,12.83
2022-11-12T15:19:08.038Z,13.04
2022-11-12T15:21:37.891Z,12.72
2022-11-12T15:24:20.554Z,12.90
2022-11-12T15:26:50.605Z,12.65
2022-11-12T15:29:37.479Z,12.57
2022-11-12T15:32:13.674Z,12.61
2022-11-12T15:34:40.610Z,12.64
2022-11-12T15:37:09.870Z,12.65
2022-11-12T15:39:45.537Z,12.60
2022-11-12T15:42:24.200Z,12.63
2022-11-12T15:44:54.957Z,12.64
2022-11-12T15:47:22.187Z,12.60
2022-11-12T15:49:59.168Z,12.62
2022-11-12T15:52:30.479Z,12.28
2022-11-12T15:54:57.074Z,12.41
2022-11-12T15:57:28.472Z,12.49
2022-11-12T16:00:06.316Z,12.40
2022-11-12T16:02:34.866Z,12.23
2022-11-12T16:05:01.478Z,12.36
2022-11-12T16:07:32.910Z,12.41
2022-11-12T16:09:59.448Z,12.45
2022-11-12T16:12:27.019Z,12.25
2022-11-12T16:14:56.618Z,12.13
2022-11-12T16:17:31.958Z,12.23
2022-11-12T16:20:01.258Z,12.36
2022-11-12T16:22:30.177Z,12.34
2022-11-12T16:25:04.604Z,12.38
2022-11-12T16:27:55.840Z,12.46
2022-11-12T16:30:29.957Z,12.50
2022-11-12T16:32:57.621Z,12.49
2022-11-12T16:35:28.095Z,12.41
2022-11-12T16:37:57.187Z,12.39
2022-11-12T16:40:27.479Z,12.25
2022-11-12T16:42:54.039Z,12.34
2022-11-12T16:45:34.902Z,12.32
2022-11-12T16:48:04.857Z,12.30
2022-11-12T16:50:33.429Z,12.19
2022-11-12T16:53:00.055Z,11.97
2022-11-12T16:55:29.017Z,11.93
2022-11-12T16:57:55.488Z,12.03
2022-11-12T17:00:24.344Z,12.03
2022-11-12T17:02:53.520Z,12.09
2022-11-12T17:05:28.012Z,12.12
2022-11-12T17:07:58.026Z,12.07
2022-11-12T17:10:27.057Z,12.02
2022-11-12T17:12:56.346Z,11.95
2022-11-12T17:15:27.696Z,11.89
2022-11-12T17:17:56.608Z,11.93
2022-11-12T17:20:25.413Z,11.94
2022-11-12T17:22:53.324Z,11.96
2022-11-12T17:25:19.839Z,11.95
2022-11-12T17:27:46.359Z,11.94
2022-11-12T17:30:15.640Z,11.90
2022-11-12T17:32:42.197Z,11.81
2022-11-12T17:35:08.779Z,11.77
2022-11-12T17:37:35.481Z,11.66
2022-11-12T17:40:01.969Z,11.58
2022-11-12T17:42:28.467Z,11.51
2022-11-12T17:44:55.005Z,11.28
2022-11-12T17:47:21.492Z,11.20
2022-11-12T17:49:48.017Z,11.25
2022-11-12T17:52:16.759Z,11.28
2022-11-12T17:54:45.625Z,11.30
2022-11-12T17:57:12.209Z,11.25
2022-11-12T17:59:38.837Z,11.17
2022-11-12T18:02:05.436Z,11.13
2022-11-12T18:04:34.237Z,11.14
2022-11-12T18:07:03.068Z,11.08
2022-11-12T18:09:31.857Z,11.10
2022-11-12T18:11:58.895Z,11.12
2022-11-12T18:14:27.852Z,11.19
2022-11-12T18:16:54.449Z,11.17
2022-11-12T18:19:23.274Z,11.09
2022-11-12T18:21:56.812Z,10.89
2022-11-12T18:24:23.435Z,11.08
2022-11-12T18:26:52.460Z,11.17
2022-11-12T18:29:18.831Z,11.19
2022-11-12T18:31:46.618Z,11.22
2022-11-12T18:34:18.419Z,11.22
2022-11-12T18:36:47.220Z,11.27
2022-11-12T18:39:14.786Z,11.31
2022-11-12T18:41:41.448Z,11.37
2022-11-12T18:44:12.524Z,11.37
2022-11-12T18:46:41.401Z,11.36
2022-11-12T18:49:07.905Z,11.38
2022-11-12T18:51:34.507Z,11.21
2022-11-12T18:54:03.717Z,11.35
2022-11-12T18:56:30.284Z,11.37
2022-11-12T18:58:59.284Z,11.44
2022-11-12T19:01:25.885Z,11.47
2022-11-12T19:03:58.437Z,11.47
2022-11-12T19:06:25.508Z,11.49
2022-11-12T19:08:52.141Z,11.47
2022-11-12T19:11:21.713Z,11.48
2022-11-12T19:13:53.257Z,11.47
2022-11-12T19:16:23.771Z,11.52
2022-11-12T19:18:51.408Z,11.51
2022-11-12T19:21:25.975Z,11.46
2022-11-12T19:23:54.897Z,11.45
2022-11-12T19:26:25.536Z,11.48
2022-11-12T19:28:52.789Z,11.46
2022-11-12T19:31:23.631Z,11.50
2022-11-12T19:33:51.076Z,11.50
2022-11-12T19:36:20.699Z,11.44
2022-11-12T19:38:47.818Z,11.41
2022-11-12T19:41:19.654Z,11.51
2022-11-12T19:43:49.738Z,11.52
2022-11-12T19:46:16.763Z,11.53
2022-11-12T19:48:43.510Z,11.50
2022-11-12T19:51:11.750Z,11.54
2022-11-12T19:53:44.367Z,11.55
2022-11-12T19:56:17.114Z,11.52
2022-11-12T19:58:54.947Z,11.55
2022-11-12T20:01:24.149Z,11.58
2022-11-12T20:03:50.912Z,11.55
2022-11-12T20:06:20.297Z,11.53
2022-11-12T20:08:47.237Z,11.51
2022-11-12T20:11:18.902Z,11.43
2022-11-12T20:13:46.258Z,11.48
2022-11-12T20:16:24.853Z,11.44
2022-11-12T20:18:55.872Z,11.26
2022-11-12T20:21:23.610Z,11.32
2022-11-12T20:23:52.841Z,11.42
2022-11-12T20:26:19.676Z,11.46
2022-11-12T20:28:49.167Z,11.48
2022-11-12T20:31:23.639Z,11.30
2022-11-12T20:33:57.583Z,11.29
2022-11-12T20:36:29.404Z,11.40
2022-11-12T20:38:55.886Z,11.42
2022-11-12T20:41:24.252Z,11.42
2022-11-12T20:43:55.691Z,11.39
2022-11-12T20:46:22.295Z,11.32
2022-11-12T20:48:54.041Z,11.17
2022-11-12T20:51:28.733Z,11.18
2022-11-12T20:53:59.962Z,10.98
2022-11-12T20:56:28.806Z,11.11
2022-11-12T20:58:55.320Z,11.13
2022-11-12T21:01:26.783Z,11.11
2022-11-12T21:03:54.068Z,11.06
2022-11-12T21:06:26.191Z,11.00
2022-11-12T21:08:52.799Z,10.99
2022-11-12T21:11:21.324Z,11.00
2022-11-12T21:13:50.817Z,10.99
2022-11-12T21:16:19.780Z,10.94
2022-11-12T21:18:49.002Z,10.87
2022-11-12T21:21:21.360Z,10.79
2022-11-12T21:23:50.577Z,10.73
2022-11-12T21:26:20.639Z,10.59
2022-11-12T21:28:50.308Z,10.42
2022-11-12T21:31:19.577Z,10.42
2022-11-12T21:33:51.183Z,10.47
2022-11-12T21:36:18.486Z,10.41
2022-11-12T21:38:45.056Z,10.42
2022-11-12T21:41:19.171Z,10.42
2022-11-12T21:43:47.492Z,10.43
2022-11-12T21:46:25.578Z,10.34
2022-11-12T21:48:55.308Z,10.23
2022-11-12T21:51:29.008Z,10.06
2022-11-12T21:53:58.417Z,10.04
2022-11-12T21:56:33.399Z,10.03
2022-11-12T21:59:01.439Z,10.02
2022-11-12T22:01:32.146Z,10.07
2022-11-12T22:04:04.878Z,10.02
2022-11-12T22:06:33.767Z,10.00
2022-11-12T22:09:00.275Z,9.95
2022-11-12T22:11:27.257Z,9.98
2022-11-12T22:13:57.132Z,9.86
2022-11-12T22:16:29.300Z,9.83
2022-11-12T22:18:59.426Z,9.83
2022-11-12T22:21:38.616Z,9.79
2022-11-12T22:24:09.202Z,9.83
2022-11-12T22:26:38.133Z,9.78
2022-11-12T22:29:23.500Z,9.75
2022-11-12T22:31:52.473Z,9.71
2022-11-12T22:34:21.281Z,9.52
2022-11-12T22:36:48.035Z,9.39
2022-11-12T22:39:17.018Z,9.47
2022-11-12T22:41:43.845Z,9.46
2022-11-12T22:44:10.346Z,9.15
2022-11-12T22:46:36.991Z,9.11
2022-11-12T22:49:06.305Z,9.25
2022-11-12T22:51:34.448Z,9.16
2022-11-12T22:54:03.731Z,9.21
2022-11-12T22:56:33.257Z,9.16
2022-11-12T22:59:04.784Z,9.18
2022-11-12T23:01:34.356Z,9.01
2022-11-12T23:04:03.345Z,8.86
2022-11-12T23:06:31.061Z,8.96
2022-11-12T23:09:02.028Z,9.12
2022-11-12T23:11:29.061Z,9.09
2022-11-12T23:13:57.328Z,9.04
2022-11-12T23:16:26.270Z,9.00
2022-11-12T23:18:58.184Z,8.85
2022-11-12T23:21:29.709Z,8.84
2022-11-12T23:24:00.090Z,8.70
2022-11-12T23:26:33.785Z,8.72
2022-11-12T23:29:03.794Z,8.84
2022-11-12T23:31:32.267Z,8.78
2022-11-12T23:34:00.343Z,8.80
2022-11-12T23:36:30.308Z,8.30
2022-11-12T23:39:01.623Z,8.39
2022-11-12T23:41:28.281Z,8.49
2022-11-12T23:43:56.861Z,8.53
2022-11-12T23:46:23.717Z,8.55
2022-11-12T23:48:50.354Z,8.58
2022-11-12T23:51:23.517Z,8.65
2022-11-12T23:53:50.207Z,8.62
2022-11-12T23:56:19.622Z,8.71
2022-11-12T23:58:49.015Z,8.72
